sensor_id;sensor_type;location;lat;lon;timestamp;P1;durP1;ratioP1;P2;durP2;ratioP2
81487;SDS011;70897;52.464;13.428;2023-12-07T00:02:18;30.92;;;18.65;;
81487;SDS011;70897;52.464;13.428;2023-12-07T00:05:04;30.92;;;18.13;;
81487;SDS011;70897;52.464;13.428;2023-12-07T00:07:49;31.45;;;18.70;;
81487;SDS011;70897;52.464;13.428;2023-12-07T00:10:34;34.08;;;19.40;;
81487;SDS011;70897;52.464;13.428;2023-12-07T00:13:19;31.15;;;18.17;;
81487;SDS011;70897;52.464;13.428;2023-12-07T00:16:05;28.60;;;17.98;;
81487;SDS011;70897;52.464;13.428;2023-12-07T00:18:51;32.45;;;18.17;;
81487;SDS011;70897;52.464;13.428;2023-12-07T00:21:36;33.25;;;18.75;;
81487;SDS011;70897;52.464;13.428;2023-12-07T00:24:22;36.00;;;20.45;;
81487;SDS011;70897;52.464;13.428;2023-12-07T00:27:07;31.73;;;19.17;;
81487;SDS011;70897;52.464;13.428;2023-12-07T00:29:53;35.40;;;20.38;;
81487;SDS011;70897;52.464;13.428;2023-12-07T00:32:38;35.13;;;19.50;;
81487;SDS011;70897;52.464;13.428;2023-12-07T00:35:27;30.83;;;18.65;;
81487;SDS011;70897;52.464;13.428;2023-12-07T00:38:13;33.90;;;18.58;;
81487;SDS011;70897;52.464;13.428;2023-12-07T00:40:59;33.05;;;18.20;;
81487;SDS011;70897;52.464;13.428;2023-12-07T00:43:44;30.30;;;18.33;;
81487;SDS011;70897;52.464;13.428;2023-12-07T00:46:30;32.60;;;18.58;;
81487;SDS011;70897;52.464;13.428;2023-12-07T00:49:15;34.47;;;19.40;;
81487;SDS011;70897;52.464;13.428;2023-12-07T00:52:00;34.67;;;19.52;;
81487;SDS011;70897;52.464;13.428;2023-12-07T00:54:47;32.85;;;19.40;;
81487;SDS011;70897;52.464;13.428;2023-12-07T00:57:32;33.45;;;18.92;;
81487;SDS011;70897;52.464;13.428;2023-12-07T01:00:17;30.90;;;18.13;;
81487;SDS011;70897;52.464;13.428;2023-12-07T01:03:03;26.83;;;16.70;;
81487;SDS011;70897;52.464;13.428;2023-12-07T01:05:48;27.95;;;17.90;;
81487;SDS011;70897;52.464;13.428;2023-12-07T01:08:34;27.48;;;16.95;;
81487;SDS011;70897;52.464;13.428;2023-12-07T01:11:19;29.42;;;17.92;;
81487;SDS011;70897;52.464;13.428;2023-12-07T01:14:05;29.58;;;17.92;;
81487;SDS011;70897;52.464;13.428;2023-12-07T01:16:50;29.67;;;18.13;;
81487;SDS011;70897;52.464;13.428;2023-12-07T01:19:35;27.30;;;16.85;;
81487;SDS011;70897;52.464;13.428;2023-12-07T01:22:21;30.08;;;18.10;;
81487;SDS011;70897;52.464;13.428;2023-12-07T01:25:06;27.60;;;16.52;;
81487;SDS011;70897;52.464;13.428;2023-12-07T01:27:52;28.85;;;17.38;;
81487;SDS011;70897;52.464;13.428;2023-12-07T01:30:37;25.63;;;16.30;;
81487;SDS011;70897;52.464;13.428;2023-12-07T01:33:23;28.15;;;17.40;;
81487;SDS011;70897;52.464;13.428;2023-12-07T01:36:08;29.77;;;17.17;;
81487;SDS011;70897;52.464;13.428;2023-12-07T01:38:54;32.20;;;17.75;;
81487;SDS011;70897;52.464;13.428;2023-12-07T01:41:39;29.17;;;17.48;;
81487;SDS011;70897;52.464;13.428;2023-12-07T01:44:25;29.98;;;17.88;;
81487;SDS011;70897;52.464;13.428;2023-12-07T01:47:11;29.40;;;17.45;;
81487;SDS011;70897;52.464;13.428;2023-12-07T01:49:57;28.70;;;17.20;;
81487;SDS011;70897;52.464;13.428;2023-12-07T01:52:44;27.58;;;17.83;;
81487;SDS011;70897;52.464;13.428;2023-12-07T01:55:30;28.83;;;17.83;;
81487;SDS011;70897;52.464;13.428;2023-12-07T01:58:17;30.75;;;17.48;;
81487;SDS011;70897;52.464;13.428;2023-12-07T02:01:03;30.02;;;18.60;;
81487;SDS011;70897;52.464;13.428;2023-12-07T02:03:48;29.50;;;18.02;;
81487;SDS011;70897;52.464;13.428;2023-12-07T02:06:34;29.67;;;17.88;;
81487;SDS011;70897;52.464;13.428;2023-12-07T02:09:19;27.50;;;17.25;;
81487;SDS011;70897;52.464;13.428;2023-12-07T02:12:07;29.08;;;18.48;;
81487;SDS011;70897;52.464;13.428;2023-12-07T02:14:52;30.70;;;18.35;;
81487;SDS011;70897;52.464;13.428;2023-12-07T02:17:41;31.40;;;18.77;;
81487;SDS011;70897;52.464;13.428;2023-12-07T02:20:33;29.48;;;17.73;;
81487;SDS011;70897;52.464;13.428;2023-12-07T02:23:19;31.55;;;19.45;;
81487;SDS011;70897;52.464;13.428;2023-12-07T02:26:06;31.08;;;18.30;;
81487;SDS011;70897;52.464;13.428;2023-12-07T02:28:51;29.20;;;16.85;;
81487;SDS011;70897;52.464;13.428;2023-12-07T02:31:37;29.88;;;18.35;;
81487;SDS011;70897;52.464;13.428;2023-12-07T02:34:22;29.73;;;18.45;;
81487;SDS011;70897;52.464;13.428;2023-12-07T02:37:08;28.70;;;17.92;;
81487;SDS011;70897;52.464;13.428;2023-12-07T02:39:56;27.48;;;17.80;;
81487;SDS011;70897;52.464;13.428;2023-12-07T02:42:41;29.70;;;18.63;;
81487;SDS011;70897;52.464;13.428;2023-12-07T02:45:27;30.42;;;17.88;;
81487;SDS011;70897;52.464;13.428;2023-12-07T02:48:13;29.75;;;17.63;;
81487;SDS011;70897;52.464;13.428;2023-12-07T02:50:58;28.77;;;17.75;;
81487;SDS011;70897;52.464;13.428;2023-12-07T02:53:44;32.90;;;19.65;;
81487;SDS011;70897;52.464;13.428;2023-12-07T02:56:29;29.25;;;17.88;;
81487;SDS011;70897;52.464;13.428;2023-12-07T02:59:14;29.45;;;18.42;;
81487;SDS011;70897;52.464;13.428;2023-12-07T03:02:00;31.48;;;19.23;;
81487;SDS011;70897;52.464;13.428;2023-12-07T03:04:45;34.65;;;19.45;;
81487;SDS011;70897;52.464;13.428;2023-12-07T03:07:30;30.38;;;19.08;;
81487;SDS011;70897;52.464;13.428;2023-12-07T03:10:16;32.10;;;18.73;;
81487;SDS011;70897;52.464;13.428;2023-12-07T03:13:01;30.50;;;18.77;;
81487;SDS011;70897;52.464;13.428;2023-12-07T03:15:47;32.15;;;20.08;;
81487;SDS011;70897;52.464;13.428;2023-12-07T03:18:32;32.65;;;20.27;;
81487;SDS011;70897;52.464;13.428;2023-12-07T03:21:17;34.97;;;20.88;;
81487;SDS011;70897;52.464;13.428;2023-12-07T03:24:03;31.50;;;19.20;;
81487;SDS011;70897;52.464;13.428;2023-12-07T03:26:48;32.90;;;19.52;;
81487;SDS011;70897;52.464;13.428;2023-12-07T03:29:34;30.67;;;18.95;;
81487;SDS011;70897;52.464;13.428;2023-12-07T03:32:19;29.50;;;19.08;;
81487;SDS011;70897;52.464;13.428;2023-12-07T03:35:05;32.20;;;19.08;;
81487;SDS011;70897;52.464;13.428;2023-12-07T03:37:50;34.35;;;19.70;;
81487;SDS011;70897;52.464;13.428;2023-12-07T03:40:36;31.83;;;19.23;;
81487;SDS011;70897;52.464;13.428;2023-12-07T03:43:22;34.78;;;19.85;;
81487;SDS011;70897;52.464;13.428;2023-12-07T03:46:07;30.35;;;18.88;;
81487;SDS011;70897;52.464;13.428;2023-12-07T03:48:53;30.75;;;19.02;;
81487;SDS011;70897;52.464;13.428;2023-12-07T03:51:38;29.83;;;18.70;;
81487;SDS011;70897;52.464;13.428;2023-12-07T03:54:24;32.63;;;19.65;;
81487;SDS011;70897;52.464;13.428;2023-12-07T03:57:09;31.88;;;19.25;;
81487;SDS011;70897;52.464;13.428;2023-12-07T03:59:54;30.55;;;18.52;;
81487;SDS011;70897;52.464;13.428;2023-12-07T04:02:40;28.83;;;17.70;;
81487;SDS011;70897;52.464;13.428;2023-12-07T04:05:25;31.35;;;19.17;;
81487;SDS011;70897;52.464;13.428;2023-12-07T04:08:10;31.13;;;19.20;;
81487;SDS011;70897;52.464;13.428;2023-12-07T04:10:56;32.63;;;19.77;;
81487;SDS011;70897;52.464;13.428;2023-12-07T04:13:42;35.97;;;21.25;;
81487;SDS011;70897;52.464;13.428;2023-12-07T04:16:27;32.53;;;19.15;;
81487;SDS011;70897;52.464;13.428;2023-12-07T04:19:13;34.08;;;21.38;;
81487;SDS011;70897;52.464;13.428;2023-12-07T04:21:58;32.83;;;20.67;;
81487;SDS011;70897;52.464;13.428;2023-12-07T04:24:43;31.67;;;20.45;;
81487;SDS011;70897;52.464;13.428;2023-12-07T04:27:29;34.47;;;20.23;;
81487;SDS011;70897;52.464;13.428;2023-12-07T04:30:14;35.80;;;20.98;;
81487;SDS011;70897;52.464;13.428;2023-12-07T04:33:00;32.50;;;20.38;;
81487;SDS011;70897;52.464;13.428;2023-12-07T04:35:45;34.45;;;21.20;;
81487;SDS011;70897;52.464;13.428;2023-12-07T04:38:32;33.88;;;19.80;;
81487;SDS011;70897;52.464;13.428;2023-12-07T04:41:17;33.28;;;20.73;;
81487;SDS011;70897;52.464;13.428;2023-12-07T04:44:03;34.78;;;20.63;;
81487;SDS011;70897;52.464;13.428;2023-12-07T04:46:48;33.95;;;19.98;;
81487;SDS011;70897;52.464;13.428;2023-12-07T04:49:33;38.17;;;21.30;;
81487;SDS011;70897;52.464;13.428;2023-12-07T04:52:19;36.45;;;22.00;;
81487;SDS011;70897;52.464;13.428;2023-12-07T04:55:05;35.40;;;21.13;;
81487;SDS011;70897;52.464;13.428;2023-12-07T04:57:51;34.45;;;20.67;;
81487;SDS011;70897;52.464;13.428;2023-12-07T05:00:36;34.10;;;20.67;;
81487;SDS011;70897;52.464;13.428;2023-12-07T05:03:21;37.90;;;22.45;;
81487;SDS011;70897;52.464;13.428;2023-12-07T05:06:07;32.30;;;19.52;;
81487;SDS011;70897;52.464;13.428;2023-12-07T05:08:52;36.75;;;22.35;;
81487;SDS011;70897;52.464;13.428;2023-12-07T05:11:37;35.53;;;21.95;;
81487;SDS011;70897;52.464;13.428;2023-12-07T05:14:23;38.05;;;21.95;;
81487;SDS011;70897;52.464;13.428;2023-12-07T05:17:09;44.97;;;23.08;;
81487;SDS011;70897;52.464;13.428;2023-12-07T05:19:55;43.80;;;22.98;;
81487;SDS011;70897;52.464;13.428;2023-12-07T05:22:40;43.45;;;23.38;;
81487;SDS011;70897;52.464;13.428;2023-12-07T05:25:26;43.70;;;22.10;;
81487;SDS011;70897;52.464;13.428;2023-12-07T05:28:11;39.85;;;22.20;;
81487;SDS011;70897;52.464;13.428;2023-12-07T05:30:56;43.20;;;21.80;;
81487;SDS011;70897;52.464;13.428;2023-12-07T05:33:42;41.65;;;22.55;;
81487;SDS011;70897;52.464;13.428;2023-12-07T05:36:28;41.42;;;22.50;;
81487;SDS011;70897;52.464;13.428;2023-12-07T05:39:13;44.88;;;22.52;;
81487;SDS011;70897;52.464;13.428;2023-12-07T05:41:58;41.13;;;21.35;;
81487;SDS011;70897;52.464;13.428;2023-12-07T05:44:44;42.88;;;22.10;;
81487;SDS011;70897;52.464;13.428;2023-12-07T05:47:29;47.70;;;22.67;;
81487;SDS011;70897;52.464;13.428;2023-12-07T05:50:15;41.67;;;22.40;;
81487;SDS011;70897;52.464;13.428;2023-12-07T05:53:00;46.15;;;23.42;;
81487;SDS011;70897;52.464;13.428;2023-12-07T05:55:46;44.28;;;21.77;;
81487;SDS011;70897;52.464;13.428;2023-12-07T05:58:31;44.03;;;21.92;;
81487;SDS011;70897;52.464;13.428;2023-12-07T06:01:17;41.88;;;22.08;;
81487;SDS011;70897;52.464;13.428;2023-12-07T06:04:07;44.35;;;23.30;;
81487;SDS011;70897;52.464;13.428;2023-12-07T06:06:53;46.75;;;23.10;;
81487;SDS011;70897;52.464;13.428;2023-12-07T06:09:39;42.20;;;22.10;;
81487;SDS011;70897;52.464;13.428;2023-12-07T06:12:25;44.58;;;22.20;;
81487;SDS011;70897;52.464;13.428;2023-12-07T06:15:11;42.78;;;21.98;;
81487;SDS011;70897;52.464;13.428;2023-12-07T06:17:57;46.40;;;22.90;;
81487;SDS011;70897;52.464;13.428;2023-12-07T06:20:43;44.45;;;22.27;;
81487;SDS011;70897;52.464;13.428;2023-12-07T06:23:28;43.33;;;21.45;;
81487;SDS011;70897;52.464;13.428;2023-12-07T06:26:13;43.50;;;21.35;;
81487;SDS011;70897;52.464;13.428;2023-12-07T06:28:59;42.88;;;22.40;;
81487;SDS011;70897;52.464;13.428;2023-12-07T06:31:44;45.03;;;23.08;;
81487;SDS011;70897;52.464;13.428;2023-12-07T06:34:30;46.08;;;21.20;;
81487;SDS011;70897;52.464;13.428;2023-12-07T06:37:15;38.25;;;20.08;;
81487;SDS011;70897;52.464;13.428;2023-12-07T06:40:01;41.78;;;20.50;;
81487;SDS011;70897;52.464;13.428;2023-12-07T06:42:48;42.38;;;20.75;;
81487;SDS011;70897;52.464;13.428;2023-12-07T06:45:34;100.70;;;46.88;;
81487;SDS011;70897;52.464;13.428;2023-12-07T06:48:20;50.53;;;24.95;;
81487;SDS011;70897;52.464;13.428;2023-12-07T06:51:05;45.53;;;22.73;;
81487;SDS011;70897;52.464;13.428;2023-12-07T06:53:51;43.58;;;21.27;;
81487;SDS011;70897;52.464;13.428;2023-12-07T06:56:36;41.92;;;20.67;;
81487;SDS011;70897;52.464;13.428;2023-12-07T06:59:21;41.90;;;20.50;;
81487;SDS011;70897;52.464;13.428;2023-12-07T07:02:07;46.78;;;22.30;;
81487;SDS011;70897;52.464;13.428;2023-12-07T07:04:52;39.78;;;19.67;;
81487;SDS011;70897;52.464;13.428;2023-12-07T07:07:38;41.88;;;21.23;;
81487;SDS011;70897;52.464;13.428;2023-12-07T07:10:23;40.97;;;20.25;;
81487;SDS011;70897;52.464;13.428;2023-12-07T07:13:09;39.65;;;19.38;;
81487;SDS011;70897;52.464;13.428;2023-12-07T07:15:54;43.40;;;21.15;;
81487;SDS011;70897;52.464;13.428;2023-12-07T07:18:40;44.97;;;21.67;;
81487;SDS011;70897;52.464;13.428;2023-12-07T07:21:25;43.05;;;20.90;;
81487;SDS011;70897;52.464;13.428;2023-12-07T07:24:10;44.10;;;21.40;;
81487;SDS011;70897;52.464;13.428;2023-12-07T07:26:56;40.03;;;19.90;;
81487;SDS011;70897;52.464;13.428;2023-12-07T07:29:41;39.00;;;19.25;;
81487;SDS011;70897;52.464;13.428;2023-12-07T07:32:27;43.83;;;20.77;;
81487;SDS011;70897;52.464;13.428;2023-12-07T07:35:13;45.22;;;20.90;;
81487;SDS011;70897;52.464;13.428;2023-12-07T07:37:58;43.40;;;21.35;;
81487;SDS011;70897;52.464;13.428;2023-12-07T07:40:44;43.33;;;20.80;;
81487;SDS011;70897;52.464;13.428;2023-12-07T07:43:31;41.13;;;20.83;;
81487;SDS011;70897;52.464;13.428;2023-12-07T07:46:18;47.97;;;22.17;;
81487;SDS011;70897;52.464;13.428;2023-12-07T07:49:03;45.40;;;22.50;;
81487;SDS011;70897;52.464;13.428;2023-12-07T07:51:49;44.80;;;22.17;;
81487;SDS011;70897;52.464;13.428;2023-12-07T07:54:35;43.03;;;21.80;;
81487;SDS011;70897;52.464;13.428;2023-12-07T07:57:21;46.00;;;23.45;;
81487;SDS011;70897;52.464;13.428;2023-12-07T08:00:06;49.38;;;23.73;;
81487;SDS011;70897;52.464;13.428;2023-12-07T08:02:53;51.08;;;24.63;;
81487;SDS011;70897;52.464;13.428;2023-12-07T08:05:38;43.47;;;22.75;;
81487;SDS011;70897;52.464;13.428;2023-12-07T08:08:24;46.22;;;24.15;;
81487;SDS011;70897;52.464;13.428;2023-12-07T08:11:10;51.20;;;24.42;;
81487;SDS011;70897;52.464;13.428;2023-12-07T08:14:02;45.22;;;21.90;;
81487;SDS011;70897;52.464;13.428;2023-12-07T08:16:47;42.63;;;22.08;;
81487;SDS011;70897;52.464;13.428;2023-12-07T08:19:33;40.47;;;21.80;;
81487;SDS011;70897;52.464;13.428;2023-12-07T08:22:18;44.78;;;23.98;;
81487;SDS011;70897;52.464;13.428;2023-12-07T08:25:04;42.58;;;22.08;;
81487;SDS011;70897;52.464;13.428;2023-12-07T08:27:50;44.90;;;22.42;;
81487;SDS011;70897;52.464;13.428;2023-12-07T08:30:35;43.17;;;22.00;;
81487;SDS011;70897;52.464;13.428;2023-12-07T08:33:21;42.70;;;22.95;;
81487;SDS011;70897;52.464;13.428;2023-12-07T08:36:06;40.58;;;21.88;;
81487;SDS011;70897;52.464;13.428;2023-12-07T08:38:53;42.95;;;22.10;;
81487;SDS011;70897;52.464;13.428;2023-12-07T08:41:39;40.42;;;22.60;;
81487;SDS011;70897;52.464;13.428;2023-12-07T08:44:24;44.92;;;23.83;;
81487;SDS011;70897;52.464;13.428;2023-12-07T08:47:19;45.70;;;23.30;;
81487;SDS011;70897;52.464;13.428;2023-12-07T08:50:46;45.53;;;23.48;;
81487;SDS011;70897;52.464;13.428;2023-12-07T08:53:57;46.42;;;24.10;;
81487;SDS011;70897;52.464;13.428;2023-12-07T08:56:43;45.63;;;24.52;;
81487;SDS011;70897;52.464;13.428;2023-12-07T08:59:29;44.70;;;23.67;;
81487;SDS011;70897;52.464;13.428;2023-12-07T09:02:17;45.22;;;23.92;;
81487;SDS011;70897;52.464;13.428;2023-12-07T09:05:03;42.38;;;22.95;;
81487;SDS011;70897;52.464;13.428;2023-12-07T09:07:48;44.63;;;22.95;;
81487;SDS011;70897;52.464;13.428;2023-12-07T09:10:34;45.08;;;23.35;;
81487;SDS011;70897;52.464;13.428;2023-12-07T09:13:19;57.92;;;29.33;;
81487;SDS011;70897;52.464;13.428;2023-12-07T09:16:05;45.60;;;23.70;;
81487;SDS011;70897;52.464;13.428;2023-12-07T09:18:50;43.63;;;22.75;;
81487;SDS011;70897;52.464;13.428;2023-12-07T09:21:35;53.95;;;27.83;;
81487;SDS011;70897;52.464;13.428;2023-12-07T09:24:21;61.58;;;30.05;;
81487;SDS011;70897;52.464;13.428;2023-12-07T09:27:06;47.03;;;23.88;;
81487;SDS011;70897;52.464;13.428;2023-12-07T09:29:52;46.40;;;24.17;;
81487;SDS011;70897;52.464;13.428;2023-12-07T09:32:37;45.70;;;24.48;;
81487;SDS011;70897;52.464;13.428;2023-12-07T09:35:23;46.70;;;24.80;;
81487;SDS011;70897;52.464;13.428;2023-12-07T09:38:08;103.50;;;53.67;;
81487;SDS011;70897;52.464;13.428;2023-12-07T09:40:54;40.35;;;20.83;;
81487;SDS011;70897;52.464;13.428;2023-12-07T09:43:39;36.35;;;19.38;;
81487;SDS011;70897;52.464;13.428;2023-12-07T09:46:25;38.08;;;20.08;;
81487;SDS011;70897;52.464;13.428;2023-12-07T09:49:10;35.90;;;18.63;;
81487;SDS011;70897;52.464;13.428;2023-12-07T09:51:56;35.83;;;19.05;;
81487;SDS011;70897;52.464;13.428;2023-12-07T09:54:42;37.08;;;18.58;;
81487;SDS011;70897;52.464;13.428;2023-12-07T09:57:28;38.63;;;19.88;;
81487;SDS011;70897;52.464;13.428;2023-12-07T10:00:14;38.38;;;19.77;;
81487;SDS011;70897;52.464;13.428;2023-12-07T10:02:59;52.42;;;26.02;;
81487;SDS011;70897;52.464;13.428;2023-12-07T10:06:18;37.90;;;20.17;;
81487;SDS011;70897;52.464;13.428;2023-12-07T10:09:02;36.70;;;18.73;;
81487;SDS011;70897;52.464;13.428;2023-12-07T10:11:47;35.38;;;18.70;;
81487;SDS011;70897;52.464;13.428;2023-12-07T10:14:33;36.03;;;18.73;;
81487;SDS011;70897;52.464;13.428;2023-12-07T10:17:18;38.20;;;20.00;;
81487;SDS011;70897;52.464;13.428;2023-12-07T10:20:07;41.92;;;20.88;;
81487;SDS011;70897;52.464;13.428;2023-12-07T10:25:51;38.92;;;19.23;;
81487;SDS011;70897;52.464;13.428;2023-12-07T10:28:37;37.85;;;19.88;;
81487;SDS011;70897;52.464;13.428;2023-12-07T10:31:22;37.72;;;19.38;;
81487;SDS011;70897;52.464;13.428;2023-12-07T10:34:08;97.47;;;46.58;;
81487;SDS011;70897;52.464;13.428;2023-12-07T10:36:53;45.13;;;22.80;;
81487;SDS011;70897;52.464;13.428;2023-12-07T10:39:40;45.80;;;22.70;;
81487;SDS011;70897;52.464;13.428;2023-12-07T10:42:25;40.85;;;20.30;;
81487;SDS011;70897;52.464;13.428;2023-12-07T10:45:12;37.15;;;19.55;;
81487;SDS011;70897;52.464;13.428;2023-12-07T10:48:03;41.42;;;19.83;;
81487;SDS011;70897;52.464;13.428;2023-12-07T10:50:49;39.20;;;18.60;;
81487;SDS011;70897;52.464;13.428;2023-12-07T10:53:38;47.13;;;24.60;;
81487;SDS011;70897;52.464;13.428;2023-12-07T10:56:28;42.63;;;20.08;;
81487;SDS011;70897;52.464;13.428;2023-12-07T10:59:14;34.83;;;19.23;;
81487;SDS011;70897;52.464;13.428;2023-12-07T11:02:00;33.03;;;16.75;;
81487;SDS011;70897;52.464;13.428;2023-12-07T11:04:46;36.95;;;18.60;;
81487;SDS011;70897;52.464;13.428;2023-12-07T11:07:42;33.38;;;17.95;;
81487;SDS011;70897;52.464;13.428;2023-12-07T11:10:33;34.33;;;17.55;;
81487;SDS011;70897;52.464;13.428;2023-12-07T11:13:27;33.10;;;17.33;;
81487;SDS011;70897;52.464;13.428;2023-12-07T11:16:14;32.80;;;17.83;;
81487;SDS011;70897;52.464;13.428;2023-12-07T11:18:59;31.27;;;17.15;;
81487;SDS011;70897;52.464;13.428;2023-12-07T11:21:45;34.03;;;18.33;;
81487;SDS011;70897;52.464;13.428;2023-12-07T11:24:30;32.60;;;17.50;;
81487;SDS011;70897;52.464;13.428;2023-12-07T11:27:16;33.70;;;17.40;;
81487;SDS011;70897;52.464;13.428;2023-12-07T11:30:02;32.78;;;17.48;;
81487;SDS011;70897;52.464;13.428;2023-12-07T11:32:49;32.40;;;17.70;;
81487;SDS011;70897;52.464;13.428;2023-12-07T11:42:10;30.50;;;17.60;;
81487;SDS011;70897;52.464;13.428;2023-12-07T11:44:55;32.00;;;17.33;;
81487;SDS011;70897;52.464;13.428;2023-12-07T11:47:41;33.28;;;18.38;;
81487;SDS011;70897;52.464;13.428;2023-12-07T11:50:26;34.78;;;18.60;;
81487;SDS011;70897;52.464;13.428;2023-12-07T11:53:12;37.83;;;20.00;;
81487;SDS011;70897;52.464;13.428;2023-12-07T11:55:58;35.30;;;18.88;;
81487;SDS011;70897;52.464;13.428;2023-12-07T11:58:43;33.55;;;18.33;;
81487;SDS011;70897;52.464;13.428;2023-12-07T12:01:29;34.90;;;19.67;;
81487;SDS011;70897;52.464;13.428;2023-12-07T12:04:15;38.90;;;19.25;;
81487;SDS011;70897;52.464;13.428;2023-12-07T12:07:01;38.40;;;19.67;;
81487;SDS011;70897;52.464;13.428;2023-12-07T12:09:46;37.50;;;19.65;;
81487;SDS011;70897;52.464;13.428;2023-12-07T12:12:35;40.42;;;21.05;;
81487;SDS011;70897;52.464;13.428;2023-12-07T12:15:20;38.30;;;20.90;;
81487;SDS011;70897;52.464;13.428;2023-12-07T12:18:06;38.88;;;20.88;;
81487;SDS011;70897;52.464;13.428;2023-12-07T12:20:51;41.10;;;21.17;;
81487;SDS011;70897;52.464;13.428;2023-12-07T12:23:36;39.58;;;20.67;;
81487;SDS011;70897;52.464;13.428;2023-12-07T12:26:23;41.70;;;21.95;;
81487;SDS011;70897;52.464;13.428;2023-12-07T12:29:09;43.97;;;23.30;;
81487;SDS011;70897;52.464;13.428;2023-12-07T12:31:56;44.55;;;23.48;;
81487;SDS011;70897;52.464;13.428;2023-12-07T12:34:41;44.50;;;23.45;;
81487;SDS011;70897;52.464;13.428;2023-12-07T12:37:26;43.58;;;23.15;;
81487;SDS011;70897;52.464;13.428;2023-12-07T12:40:17;48.45;;;23.90;;
81487;SDS011;70897;52.464;13.428;2023-12-07T12:43:03;49.08;;;24.38;;
81487;SDS011;70897;52.464;13.428;2023-12-07T12:45:49;49.63;;;25.08;;
81487;SDS011;70897;52.464;13.428;2023-12-07T12:48:35;48.08;;;25.40;;
81487;SDS011;70897;52.464;13.428;2023-12-07T12:51:21;49.80;;;25.33;;
81487;SDS011;70897;52.464;13.428;2023-12-07T12:54:08;49.47;;;24.67;;
81487;SDS011;70897;52.464;13.428;2023-12-07T12:56:53;51.53;;;25.45;;
81487;SDS011;70897;52.464;13.428;2023-12-07T12:59:39;49.72;;;25.92;;
81487;SDS011;70897;52.464;13.428;2023-12-07T13:02:24;46.88;;;25.45;;
81487;SDS011;70897;52.464;13.428;2023-12-07T13:05:10;50.17;;;25.30;;
81487;SDS011;70897;52.464;13.428;2023-12-07T13:07:55;53.03;;;25.30;;
81487;SDS011;70897;52.464;13.428;2023-12-07T13:10:41;48.85;;;24.42;;
81487;SDS011;70897;52.464;13.428;2023-12-07T13:13:26;51.70;;;25.40;;
81487;SDS011;70897;52.464;13.428;2023-12-07T13:16:12;49.08;;;25.20;;
81487;SDS011;70897;52.464;13.428;2023-12-07T13:18:59;49.20;;;25.60;;
81487;SDS011;70897;52.464;13.428;2023-12-07T13:21:44;50.00;;;25.75;;
81487;SDS011;70897;52.464;13.428;2023-12-07T13:24:30;48.30;;;24.77;;
81487;SDS011;70897;52.464;13.428;2023-12-07T13:27:15;48.80;;;25.75;;
81487;SDS011;70897;52.464;13.428;2023-12-07T13:30:01;54.97;;;26.90;;
81487;SDS011;70897;52.464;13.428;2023-12-07T13:32:49;52.25;;;26.80;;
81487;SDS011;70897;52.464;13.428;2023-12-07T13:35:34;53.20;;;26.63;;
81487;SDS011;70897;52.464;13.428;2023-12-07T13:38:20;54.55;;;26.92;;
81487;SDS011;70897;52.464;13.428;2023-12-07T13:41:05;54.70;;;26.90;;
81487;SDS011;70897;52.464;13.428;2023-12-07T13:43:51;54.78;;;28.02;;
81487;SDS011;70897;52.464;13.428;2023-12-07T13:46:36;56.25;;;27.15;;
81487;SDS011;70897;52.464;13.428;2023-12-07T13:49:22;60.03;;;27.60;;
81487;SDS011;70897;52.464;13.428;2023-12-07T13:52:07;54.50;;;28.17;;
81487;SDS011;70897;52.464;13.428;2023-12-07T13:54:52;58.72;;;28.05;;
81487;SDS011;70897;52.464;13.428;2023-12-07T13:57:38;58.22;;;28.10;;
81487;SDS011;70897;52.464;13.428;2023-12-07T14:00:24;61.20;;;29.17;;
81487;SDS011;70897;52.464;13.428;2023-12-07T14:03:09;60.85;;;30.15;;
81487;SDS011;70897;52.464;13.428;2023-12-07T14:05:55;63.00;;;31.33;;
81487;SDS011;70897;52.464;13.428;2023-12-07T14:08:40;63.70;;;31.15;;
81487;SDS011;70897;52.464;13.428;2023-12-07T14:11:25;64.25;;;30.45;;
81487;SDS011;70897;52.464;13.428;2023-12-07T14:14:11;62.83;;;29.33;;
81487;SDS011;70897;52.464;13.428;2023-12-07T14:16:57;61.42;;;29.83;;
81487;SDS011;70897;52.464;13.428;2023-12-07T14:19:46;62.50;;;30.02;;
81487;SDS011;70897;52.464;13.428;2023-12-07T14:22:34;69.07;;;31.35;;
81487;SDS011;70897;52.464;13.428;2023-12-07T14:25:20;68.05;;;30.58;;
81487;SDS011;70897;52.464;13.428;2023-12-07T14:28:05;66.53;;;31.88;;
81487;SDS011;70897;52.464;13.428;2023-12-07T14:30:51;69.97;;;30.17;;
81487;SDS011;70897;52.464;13.428;2023-12-07T14:33:40;71.43;;;33.05;;
81487;SDS011;70897;52.464;13.428;2023-12-07T14:36:26;72.28;;;32.63;;
81487;SDS011;70897;52.464;13.428;2023-12-07T14:39:11;69.38;;;31.35;;
81487;SDS011;70897;52.464;13.428;2023-12-07T14:42:01;71.05;;;31.17;;
81487;SDS011;70897;52.464;13.428;2023-12-07T14:44:47;73.00;;;31.42;;
81487;SDS011;70897;52.464;13.428;2023-12-07T14:47:33;68.30;;;31.63;;
81487;SDS011;70897;52.464;13.428;2023-12-07T14:50:19;73.63;;;32.13;;
81487;SDS011;70897;52.464;13.428;2023-12-07T14:53:04;77.43;;;31.35;;
81487;SDS011;70897;52.464;13.428;2023-12-07T14:55:51;78.88;;;33.72;;
81487;SDS011;70897;52.464;13.428;2023-12-07T14:58:36;81.95;;;34.30;;
81487;SDS011;70897;52.464;13.428;2023-12-07T15:01:24;88.20;;;36.78;;
81487;SDS011;70897;52.464;13.428;2023-12-07T15:04:10;88.82;;;36.38;;
81487;SDS011;70897;52.464;13.428;2023-12-07T15:06:55;87.03;;;35.75;;
81487;SDS011;70897;52.464;13.428;2023-12-07T15:09:40;91.78;;;35.35;;
81487;SDS011;70897;52.464;13.428;2023-12-07T15:12:26;94.60;;;35.38;;
81487;SDS011;70897;52.464;13.428;2023-12-07T15:15:11;102.82;;;35.10;;
81487;SDS011;70897;52.464;13.428;2023-12-07T15:17:57;95.15;;;36.00;;
81487;SDS011;70897;52.464;13.428;2023-12-07T15:20:42;111.43;;;36.60;;
81487;SDS011;70897;52.464;13.428;2023-12-07T15:23:28;107.18;;;35.42;;
81487;SDS011;70897;52.464;13.428;2023-12-07T15:26:13;122.47;;;36.97;;
81487;SDS011;70897;52.464;13.428;2023-12-07T15:28:59;129.68;;;37.67;;
81487;SDS011;70897;52.464;13.428;2023-12-07T15:31:44;110.60;;;37.03;;
81487;SDS011;70897;52.464;13.428;2023-12-07T15:34:32;158.23;;;35.92;;
81487;SDS011;70897;52.464;13.428;2023-12-07T15:37:19;153.40;;;36.28;;
81487;SDS011;70897;52.464;13.428;2023-12-07T15:40:05;152.88;;;36.70;;
81487;SDS011;70897;52.464;13.428;2023-12-07T15:42:54;190.18;;;37.17;;
81487;SDS011;70897;52.464;13.428;2023-12-07T15:45:39;165.60;;;35.92;;
81487;SDS011;70897;52.464;13.428;2023-12-07T15:48:25;173.50;;;36.15;;
81487;SDS011;70897;52.464;13.428;2023-12-07T15:51:11;249.13;;;35.67;;
81487;SDS011;70897;52.464;13.428;2023-12-07T15:53:56;152.73;;;34.88;;
81487;SDS011;70897;52.464;13.428;2023-12-07T15:56:42;201.80;;;30.90;;
81487;SDS011;70897;52.464;13.428;2023-12-07T15:59:28;169.98;;;34.20;;
81487;SDS011;70897;52.464;13.428;2023-12-07T16:02:16;144.48;;;30.10;;
81487;SDS011;70897;52.464;13.428;2023-12-07T16:05:03;112.03;;;29.73;;
81487;SDS011;70897;52.464;13.428;2023-12-07T16:07:52;211.40;;;30.95;;